Time;durP1;ratioP1;P1;durP2;ratioP2;P2;SDS_P1;SDS_P2;PMS_P1;PMS_P2;Temp;Humidity;BMP_temperature;BMP_pressure;BME280_temperature;BME280_humidity;BME280_pressure;Samples;Min_cycle;Max_cycle;Signal;HPM_P1;HPM_P2
2023/07/06 00:00:53;;;;;;;5.05;3.40;;;14.60;93.90;;;;;;5043937;28;20213;-89
2023/07/06 00:03:23;;;;;;;4.57;3.50;;;14.60;93.60;;;;;;5035634;28;20226;-89
2023/07/06 00:05:52;;;;;;;6.40;3.60;;;14.60;93.90;;;;;;5043346;28;20196;-88
2023/07/06 00:08:19;;;;;;;4.10;3.70;;;14.50;94.30;;;;;;5045581;28;20263;-88
2023/07/06 00:10:49;;;;;;;3.78;3.35;;;14.50;94.40;;;;;;5047106;28;20692;-89
2023/07/06 00:13:16;;;;;;;4.72;3.47;;;14.50;95.40;;;;;;5042615;28;20719;-88
2023/07/06 00:15:44;;;;;;;4.03;3.63;;;14.60;95.80;;;;;;5044697;28;20214;-88
2023/07/06 00:18:12;;;;;;;4.88;3.28;;;14.60;95.30;;;;;;5047600;28;20308;-88
2023/07/06 00:20:39;;;;;;;4.07;3.60;;;14.60;95.10;;;;;;5045260;28;20580;-87
2023/07/06 00:23:09;;;;;;;4.65;3.53;;;14.60;95.00;;;;;;5049792;28;20218;-88
2023/07/06 00:25:37;;;;;;;3.78;3.10;;;14.50;95.10;;;;;;5041953;28;20621;-88
2023/07/06 00:28:05;;;;;;;9.10;3.78;;;14.50;95.20;;;;;;5047197;28;20214;-88
2023/07/06 00:30:53;;;;;;;4.40;3.60;;;14.50;95.10;;;;;;5046257;28;20205;-88
2023/07/06 00:33:21;;;;;;;4.43;3.80;;;14.50;95.10;;;;;;5041996;28;20194;-88
2023/07/06 00:35:49;;;;;;;4.88;3.60;;;14.50;95.30;;;;;;5043966;28;20206;-88
2023/07/06 00:40:59;;;;;;;4.43;3.47;;;14.60;95.20;;;;;;5046585;28;20256;-86
2023/07/06 00:46:12;;;;;;;4.20;3.60;;;14.60;95.10;;;;;;5046364;28;20221;-89
2023/07/06 00:48:45;;;;;;;3.55;3.22;;;14.60;95.20;;;;;;5042987;28;20206;-89
2023/07/06 00:51:16;;;;;;;11.93;3.50;;;14.60;95.00;;;;;;5043799;28;20209;-88
2023/07/06 00:53:54;;;;;;;3.65;2.92;;;14.60;95.10;;;;;;5050034;28;20206;-89
2023/07/06 00:56:27;;;;;;;3.10;2.80;;;14.50;94.90;;;;;;5033909;28;20195;-88
2023/07/06 00:59:02;;;;;;;5.38;3.22;;;14.50;94.80;;;;;;5047105;28;20205;-88
2023/07/06 01:01:31;;;;;;;4.72;3.40;;;14.50;95.20;;;;;;5037393;28;20260;-89
2023/07/06 01:03:59;;;;;;;4.03;3.10;;;14.50;95.00;;;;;;5046055;28;20249;-87
2023/07/06 01:06:30;;;;;;;4.68;3.55;;;14.40;95.00;;;;;;5039966;28;20289;-88
2023/07/06 01:09:00;;;;;;;5.28;3.25;;;14.40;95.10;;;;;;5044740;28;20222;-89
2023/07/06 01:11:29;;;;;;;4.95;3.50;;;14.40;95.10;;;;;;5045850;28;20198;-88
2023/07/06 01:13:56;;;;;;;3.50;3.20;;;14.40;95.20;;;;;;5045223;28;20256;-87
2023/07/06 01:16:30;;;;;;;4.40;3.38;;;14.50;95.10;;;;;;5041260;28;20198;-86
2023/07/06 01:22:22;;;;;;;8.57;3.35;;;14.40;94.60;;;;;;5137633;27;20594;-87
2023/07/06 01:25:09;;;;;;;4.18;3.35;;;14.40;94.80;;;;;;5124694;28;20669;-87
2023/07/06 01:33:47;;;;;;;4.03;3.22;;;14.40;94.70;;;;;;5127361;27;20191;-87
2023/07/06 01:39:15;;;;;;;4.75;3.47;;;14.30;94.30;;;;;;5124089;27;20201;-87
2023/07/06 01:41:43;;;;;;;5.47;3.33;;;14.30;94.30;;;;;;5127461;27;20309;-88
2023/07/06 01:44:12;;;;;;;4.50;3.22;;;14.30;94.20;;;;;;5129530;27;20187;-87
2023/07/06 01:46:51;;;;;;;3.42;3.13;;;14.20;93.60;;;;;;5130193;27;20241;-88
2023/07/06 01:49:33;;;;;;;4.60;3.30;;;14.20;93.90;;;;;;5126112;27;20278;-87
2023/07/06 01:52:08;;;;;;;3.40;3.10;;;14.20;94.20;;;;;;5118396;28;20606;-87
2023/07/06 01:57:29;;;;;;;4.18;3.00;;;14.10;93.90;;;;;;5127197;27;20203;-86
2023/07/06 02:00:09;;;;;;;3.75;3.00;;;14.10;94.10;;;;;;5127654;27;20205;-88
2023/07/06 02:02:37;;;;;;;3.30;3.00;;;14.10;94.00;;;;;;5116224;28;20272;-87
2023/07/06 02:05:08;;;;;;;3.55;3.08;;;14.00;93.80;;;;;;5128817;27;20651;-88
2023/07/06 02:07:35;;;;;;;5.10;3.55;;;14.00;94.30;;;;;;5128133;27;20196;-86
2023/07/06 02:10:02;;;;;;;3.22;2.92;;;13.90;94.50;;;;;;5127831;27;20620;-88
2023/07/06 02:12:30;;;;;;;3.97;3.20;;;14.00;94.90;;;;;;5129913;27;20198;-86
2023/07/06 02:14:58;;;;;;;3.85;3.30;;;13.90;94.60;;;;;;5132390;27;20743;-84
2023/07/06 02:17:26;;;;;;;4.22;3.75;;;13.80;94.80;;;;;;5119382;27;20648;-86
2023/07/06 02:19:53;;;;;;;3.95;3.47;;;13.80;94.80;;;;;;5103667;28;20207;-87
2023/07/06 02:22:21;;;;;;;3.53;3.20;;;13.70;94.80;;;;;;5107557;28;20200;-85
2023/07/06 02:24:48;;;;;;;3.47;3.17;;;13.70;95.00;;;;;;5106850;28;20709;-87
2023/07/06 02:27:16;;;;;;;6.10;3.33;;;13.60;95.40;;;;;;5105421;28;20204;-87
2023/07/06 02:29:43;;;;;;;4.30;3.35;;;13.50;95.90;;;;;;5105263;28;20219;-87
2023/07/06 02:32:10;;;;;;;4.30;3.55;;;13.50;96.20;;;;;;5081629;28;20207;-87
2023/07/06 02:34:38;;;;;;;4.20;3.40;;;13.50;96.60;;;;;;5092746;28;20201;-87
2023/07/06 02:37:05;;;;;;;4.60;3.30;;;13.40;96.50;;;;;;5091479;28;20290;-87
2023/07/06 02:39:35;;;;;;;5.78;4.03;;;13.40;96.50;;;;;;5075075;28;20204;-86
2023/07/06 02:42:03;;;;;;;4.68;3.78;;;13.40;96.50;;;;;;5092078;28;20231;-87
2023/07/06 02:44:29;;;;;;;6.53;3.85;;;13.40;96.70;;;;;;5082514;28;20562;-88
2023/07/06 02:46:57;;;;;;;3.85;3.22;;;13.30;96.50;;;;;;5082240;28;20665;-86
2023/07/06 02:49:24;;;;;;;3.95;3.47;;;13.20;96.70;;;;;;5077253;28;20205;-87
2023/07/06 02:51:51;;;;;;;4.05;3.28;;;13.20;97.10;;;;;;5091629;28;20605;-87
2023/07/06 02:54:20;;;;;;;6.38;3.78;;;13.10;97.30;;;;;;5093195;28;20213;-86
2023/07/06 02:56:49;;;;;;;4.85;3.58;;;13.10;97.60;;;;;;5091674;28;20303;-86
2023/07/06 02:59:18;;;;;;;4.28;3.70;;;13.00;97.70;;;;;;5091265;28;20211;-86
2023/07/06 03:01:45;;;;;;;4.80;3.50;;;13.00;97.90;;;;;;5092715;28;20213;-87
2023/07/06 03:04:12;;;;;;;6.70;3.35;;;13.00;98.00;;;;;;5091444;28;20231;-85
2023/07/06 03:06:40;;;;;;;4.53;3.70;;;12.90;97.80;;;;;;5116307;27;20197;-86
2023/07/06 03:09:10;;;;;;;5.43;3.42;;;12.90;97.80;;;;;;5072051;28;20259;-87
2023/07/06 03:11:39;;;;;;;4.28;3.50;;;12.80;97.80;;;;;;5092051;28;20250;-86
2023/07/06 03:16:53;;;;;;;5.15;3.40;;;12.80;98.00;;;;;;5092065;28;20209;-87
2023/07/06 03:19:21;;;;;;;4.10;3.70;;;12.80;98.00;;;;;;5089086;28;20303;-87
2023/07/06 03:21:52;;;;;;;4.07;3.67;;;12.80;98.30;;;;;;5089889;28;20228;-86
2023/07/06 03:24:19;;;;;;;4.22;3.30;;;12.80;98.40;;;;;;5092942;28;20283;-87
2023/07/06 03:26:46;;;;;;;5.47;3.50;;;12.80;98.10;;;;;;5083329;28;20192;-86
2023/07/06 03:29:14;;;;;;;5.80;3.33;;;12.80;98.20;;;;;;5083234;28;20667;-86
2023/07/06 03:31:42;;;;;;;4.38;3.70;;;12.80;98.00;;;;;;5090940;28;20197;-84
2023/07/06 03:34:09;;;;;;;3.83;3.42;;;12.80;98.10;;;;;;5090385;28;20287;-89
2023/07/06 03:36:37;;;;;;;4.53;3.50;;;12.80;97.80;;;;;;5090208;28;20209;-85
2023/07/06 03:39:05;;;;;;;5.20;3.58;;;12.80;97.80;;;;;;5090889;28;20664;-86
2023/07/06 03:41:32;;;;;;;4.53;3.60;;;12.90;98.00;;;;;;5092819;28;20795;-86
2023/07/06 03:44:00;;;;;;;4.63;3.33;;;12.90;98.00;;;;;;5091012;28;20269;-85
2023/07/06 03:46:34;;;;;;;6.13;3.75;;;12.90;97.80;;;;;;5094020;28;20209;-86
2023/07/06 03:49:03;;;;;;;6.35;3.63;;;12.90;97.60;;;;;;5089612;28;20216;-86
2023/07/06 03:51:30;;;;;;;7.18;3.78;;;12.90;97.70;;;;;;5091659;28;20723;-85
2023/07/06 03:53:57;;;;;;;3.72;3.08;;;12.90;97.90;;;;;;5094473;28;20203;-87
2023/07/06 03:56:27;;;;;;;5.38;3.33;;;12.80;97.40;;;;;;5092689;28;20200;-86
2023/07/06 03:58:56;;;;;;;6.05;3.75;;;12.90;97.60;;;;;;5091481;28;20210;-86
2023/07/06 04:01:24;;;;;;;4.57;3.30;;;12.90;97.80;;;;;;5071629;28;20221;-86
2023/07/06 04:06:41;;;;;;;4.13;3.42;;;12.90;98.10;;;;;;5090872;28;20204;-89
2023/07/06 04:09:09;;;;;;;4.97;3.40;;;12.90;98.10;;;;;;5089596;28;20204;-87
2023/07/06 04:11:40;;;;;;;4.80;3.53;;;12.90;98.00;;;;;;5086807;28;20193;-86
2023/07/06 04:14:08;;;;;;;3.80;3.40;;;12.90;97.70;;;;;;5090108;28;20196;-87
2023/07/06 04:16:36;;;;;;;4.85;3.55;;;12.90;97.50;;;;;;5089050;28;20254;-87
2023/07/06 04:19:05;;;;;;;9.27;4.03;;;12.90;97.70;;;;;;5090707;28;20254;-86
2023/07/06 04:21:32;;;;;;;4.90;3.50;;;12.90;97.70;;;;;;5095937;28;20216;-87
2023/07/06 04:23:59;;;;;;;4.20;3.35;;;12.90;97.80;;;;;;5104139;28;20212;-86
2023/07/06 04:26:27;;;;;;;10.10;3.83;;;12.90;97.80;;;;;;5075086;28;20239;-87
2023/07/06 04:28:54;;;;;;;3.50;2.97;;;12.90;97.70;;;;;;5084932;28;20207;-85
2023/07/06 04:31:21;;;;;;;4.75;3.63;;;13.00;97.70;;;;;;5089285;28;20201;-87
2023/07/06 04:33:52;;;;;;;5.50;3.33;;;13.10;97.30;;;;;;5095767;28;20197;-89
2023/07/06 04:39:58;;;;;;;3.60;3.25;;;13.30;97.00;;;;;;5093968;28;20200;-89
2023/07/06 04:49:39;;;;;;;3.47;3.17;;;13.50;96.80;;;;;;5018531;28;20201;-89
2023/07/06 04:59:13;;;;;;;3.70;3.30;;;13.90;96.40;;;;;;4977259;28;20220;-94
2023/07/06 05:14:07;;;;;;;4.93;3.90;;;15.00;92.70;;;;;;5057726;28;20315;-91
2023/07/06 05:19:23;;;;;;;6.10;3.65;;;15.00;92.20;;;;;;5068170;28;20251;-91
2023/07/06 06:45:35;;;;;;;4.43;3.28;;;18.70;51.70;;;;;;5118968;28;20329;-91
2023/07/06 08:10:10;;;;;;;4.22;2.90;;;21.80;17.80;;;;;;5039044;28;20226;-91
2023/07/06 08:32:26;;;;;;;4.72;3.20;;;23.00;16.70;;;;;;5092710;28;20238;-89
2023/07/06 11:00:48;;;;;;;5.13;3.92;;;27.50;9.20;;;;;;4990138;28;20198;-93
2023/07/06 11:09:48;;;;;;;5.75;3.90;;;26.00;14.60;;;;;;5025766;28;20224;-93
2023/07/06 11:18:25;;;;;;;6.20;3.90;;;25.10;12.80;;;;;;5038217;28;20265;-90
2023/07/06 11:39:06;;;;;;;4.68;3.53;;;25.30;11.80;;;;;;5085458;28;20201;-91
2023/07/06 11:44:42;;;;;;;3.75;3.45;;;25.30;11.50;;;;;;5075034;28;20569;-90
2023/07/06 11:47:34;;;;;;;5.32;4.35;;;25.60;12.90;;;;;;5072075;28;20226;-91
2023/07/06 11:50:03;;;;;;;5.00;3.80;;;25.50;13.30;;;;;;5084116;28;20192;-90
2023/07/06 11:52:33;;;;;;;5.15;3.95;;;25.30;10.60;;;;;;5085002;28;20577;-90
2023/07/06 11:58:05;;;;;;;4.20;3.80;;;24.30;13.70;;;;;;5089742;28;20192;-91
2023/07/06 12:00:48;;;;;;;5.00;3.63;;;24.00;13.60;;;;;;5086428;28;20220;-91
2023/07/06 12:03:25;;;;;;;5.45;3.80;;;24.10;13.60;;;;;;5084388;28;20213;-91
2023/07/06 12:05:55;;;;;;;7.20;4.18;;;23.90;13.50;;;;;;5070665;28;20302;-90
2023/07/06 12:08:27;;;;;;;5.50;3.70;;;23.80;13.40;;;;;;5093055;28;20675;-91
2023/07/06 12:13:59;;;;;;;7.65;4.40;;;24.50;13.90;;;;;;5046254;28;20207;-91
2023/07/06 12:16:46;;;;;;;5.68;4.07;;;24.70;14.00;;;;;;5087692;28;20196;-90
2023/07/06 12:19:15;;;;;;;8.55;4.10;;;25.20;12.30;;;;;;5092251;28;20273;-91
2023/07/06 12:21:45;;;;;;;5.80;4.60;;;25.40;14.30;;;;;;5069259;28;20190;-91
2023/07/06 12:24:16;;;;;;;6.50;4.80;;;25.50;11.70;;;;;;5102092;28;20220;-91
2023/07/06 12:26:46;;;;;;;11.63;8.00;;;25.20;13.30;;;;;;5080490;28;20196;-92
2023/07/06 12:32:06;;;;;;;5.78;5.18;;;25.10;11.10;;;;;;5080172;28;20283;-90
2023/07/06 12:34:37;;;;;;;26.95;23.40;;;25.00;12.20;;;;;;5060896;28;20231;-91
2023/07/06 12:37:04;;;;;;;12.27;8.90;;;25.10;14.20;;;;;;5093373;28;20269;-93
2023/07/06 12:39:37;;;;;;;7.15;4.82;;;25.70;12.10;;;;;;5087554;28;20205;-92
2023/07/06 12:42:06;;;;;;;8.27;4.57;;;26.00;11.70;;;;;;5070192;28;20216;-92
2023/07/06 12:44:37;;;;;;;5.15;4.47;;;26.20;12.40;;;;;;5088327;28;20215;-91
2023/07/06 12:47:22;;;;;;;10.30;9.27;;;26.30;10.00;;;;;;5080569;28;20224;-92
2023/07/06 12:49:52;;;;;;;4.85;4.35;;;26.40;11.10;;;;;;5081511;28;20657;-89
2023/07/06 12:52:22;;;;;;;10.05;5.80;;;26.10;10.50;;;;;;5080568;28;20197;-90
2023/07/06 12:54:52;;;;;;;15.60;6.75;;;25.70;10.30;;;;;;5078051;28;20608;-90
2023/07/06 12:57:23;;;;;;;5.35;4.65;;;25.60;12.00;;;;;;5083505;28;20270;-90
2023/07/06 12:59:56;;;;;;;5.70;4.80;;;25.80;11.20;;;;;;5084815;28;20197;-90
2023/07/06 13:02:30;;;;;;;6.75;4.53;;;25.70;10.60;;;;;;5083829;28;20292;-90
2023/07/06 13:04:57;;;;;;;5.22;4.60;;;25.50;11.60;;;;;;5088781;28;20208;-89
2023/07/06 13:07:28;;;;;;;5.10;4.43;;;25.40;12.00;;;;;;5084518;28;20604;-90
2023/07/06 13:09:56;;;;;;;5.90;4.95;;;25.50;12.40;;;;;;5081574;28;20704;-92
2023/07/06 13:12:25;;;;;;;6.00;4.97;;;25.50;10.90;;;;;;5063223;28;20193;-88
2023/07/06 13:14:56;;;;;;;6.63;5.07;;;25.30;12.10;;;;;;5082542;28;20568;-90
2023/07/06 13:17:25;;;;;;;4.65;3.78;;;24.90;13.30;;;;;;5084415;28;20292;-90
2023/07/06 13:19:54;;;;;;;5.93;3.80;;;24.70;13.20;;;;;;5073804;28;20213;-91
2023/07/06 13:22:22;;;;;;;6.20;4.55;;;24.40;13.80;;;;;;5080353;28;20251;-92
2023/07/06 13:24:50;;;;;;;5.10;4.25;;;24.30;13.70;;;;;;5077227;28;20282;-92
2023/07/06 13:27:19;;;;;;;5.85;4.78;;;24.40;13.80;;;;;;5080124;28;20210;-91
2023/07/06 13:29:46;;;;;;;5.38;4.13;;;24.40;13.70;;;;;;5084060;28;20223;-91
2023/07/06 13:32:20;;;;;;;7.70;5.55;;;24.50;13.00;;;;;;5084783;28;20204;-91
2023/07/06 13:34:49;;;;;;;4.80;4.30;;;24.90;14.10;;;;;;5081413;28;20225;-91
2023/07/06 13:37:23;;;;;;;5.95;4.40;;;25.20;13.60;;;;;;5087231;28;20200;-91
2023/07/06 13:39:50;;;;;;;5.45;4.30;;;25.40;11.40;;;;;;5088854;28;20629;-91
2023/07/06 13:42:17;;;;;;;6.05;4.63;;;25.40;11.40;;;;;;5056590;28;20220;-91
2023/07/06 13:44:44;;;;;;;5.65;4.32;;;25.20;13.50;;;;;;5085479;28;20188;-91
2023/07/06 13:47:18;;;;;;;5.43;3.85;;;25.00;14.00;;;;;;5084802;28;20193;-90
2023/07/06 13:49:47;;;;;;;5.50;4.05;;;24.80;12.80;;;;;;5061617;28;20291;-89
2023/07/06 13:52:15;;;;;;;6.65;4.63;;;24.70;14.00;;;;;;5062611;28;20199;-91
2023/07/06 13:54:41;;;;;;;5.22;4.20;;;24.50;13.90;;;;;;5073227;28;20195;-89
2023/07/06 13:57:10;;;;;;;4.90;4.40;;;24.40;13.80;;;;;;5083835;28;20563;-90
2023/07/06 13:59:37;;;;;;;4.85;3.95;;;24.50;13.90;;;;;;5078276;28;20196;-89
2023/07/06 14:02:04;;;;;;;11.05;5.93;;;24.60;13.20;;;;;;5079306;28;20204;-89
2023/07/06 14:04:33;;;;;;;6.68;5.45;;;24.50;13.90;;;;;;5082209;28;22120;-87
2023/07/06 14:07:01;;;;;;;6.00;4.88;;;24.50;13.90;;;;;;5077337;28;20204;-87
2023/07/06 14:09:28;;;;;;;5.15;4.40;;;24.30;13.80;;;;;;5078997;28;20223;-87
2023/07/06 14:11:55;;;;;;;8.85;5.00;;;24.50;13.90;;;;;;5043486;28;20205;-88
2023/07/06 14:14:22;;;;;;;4.72;4.07;;;24.70;14.00;;;;;;5056900;28;20195;-88
2023/07/06 14:16:51;;;;;;;5.22;4.72;;;24.70;14.00;;;;;;5080488;28;20196;-88
2023/07/06 14:19:17;;;;;;;4.88;4.10;;;24.60;13.90;;;;;;5064576;28;20220;-89
2023/07/06 14:21:46;;;;;;;5.70;4.55;;;24.30;13.70;;;;;;5081297;28;20208;-89
2023/07/06 14:24:19;;;;;;;6.53;5.07;;;24.10;13.60;;;;;;5079681;28;20229;-89
2023/07/06 14:26:46;;;;;;;4.97;4.47;;;24.10;15.20;;;;;;5077137;28;20596;-87
2023/07/06 14:29:12;;;;;;;6.38;4.57;;;24.00;13.70;;;;;;5059356;28;20714;-88
2023/07/06 14:31:39;;;;;;;7.88;4.55;;;23.90;13.50;;;;;;5078797;28;20416;-88
2023/07/06 14:34:06;;;;;;;7.05;4.35;;;24.00;13.60;;;;;;5080394;28;20288;-89
2023/07/06 14:36:34;;;;;;;7.05;4.60;;;24.00;14.60;;;;;;5066202;28;20205;-89
2023/07/06 14:39:03;;;;;;;9.27;4.93;;;23.90;13.50;;;;;;5083450;28;20246;-91
2023/07/06 14:41:30;;;;;;;5.95;5.35;;;24.10;13.60;;;;;;5078765;28;20342;-91
2023/07/06 14:43:57;;;;;;;6.28;4.88;;;24.00;13.60;;;;;;5084588;28;20216;-88
2023/07/06 14:46:24;;;;;;;7.07;6.35;;;24.20;14.60;;;;;;5065140;28;20219;-88
2023/07/06 14:48:51;;;;;;;6.97;4.60;;;24.40;13.90;;;;;;5072005;28;20204;-88
2023/07/06 14:51:18;;;;;;;12.73;10.05;;;24.30;13.80;;;;;;5084488;28;20192;-86
2023/07/06 14:53:46;;;;;;;8.75;4.30;;;24.40;13.80;;;;;;5084570;28;20541;-86
2023/07/06 14:56:21;;;;;;;6.68;5.82;;;24.40;13.80;;;;;;5085190;28;20644;-88
2023/07/06 14:58:48;;;;;;;10.43;7.53;;;24.50;13.20;;;;;;5060273;28;20565;-87
2023/07/06 15:01:15;;;;;;;6.43;5.32;;;24.40;13.80;;;;;;5082846;28;20204;-87
2023/07/06 15:03:41;;;;;;;10.75;5.47;;;24.20;14.50;;;;;;5067317;28;20681;-87
2023/07/06 15:06:10;;;;;;;5.80;4.40;;;24.00;13.50;;;;;;5082984;28;20192;-88
2023/07/06 15:08:38;;;;;;;7.22;5.10;;;23.80;13.40;;;;;;5062583;28;20201;-88
2023/07/06 15:11:05;;;;;;;6.55;5.13;;;23.60;14.50;;;;;;5061418;28;20197;-88
2023/07/06 15:13:34;;;;;;;6.80;4.78;;;23.70;13.40;;;;;;5084207;28;20263;-86
2023/07/06 15:16:01;;;;;;;7.45;5.07;;;23.60;13.30;;;;;;5084095;28;21182;-88
2023/07/06 15:18:27;;;;;;;46.90;41.63;;;23.40;14.50;;;;;;5061635;28;20303;-87
2023/07/06 15:21:06;;;;;;;28.02;23.27;;;23.20;15.30;;;;;;5089131;28;20204;-87
2023/07/06 15:23:33;;;;;;;6.45;5.53;;;23.10;15.20;;;;;;5044531;28;21240;-89
2023/07/06 15:26:00;;;;;;;5.13;4.20;;;22.90;15.90;;;;;;5080935;28;20204;-91
2023/07/06 15:28:27;;;;;;;6.88;5.15;;;22.90;15.00;;;;;;5063131;28;20277;-88
2023/07/06 15:30:56;;;;;;;5.90;4.60;;;23.00;15.40;;;;;;5080871;28;20940;-87
2023/07/06 15:33:23;;;;;;;7.20;4.85;;;23.40;14.70;;;;;;5063476;28;20208;-89
2023/07/06 15:35:50;;;;;;;6.47;5.00;;;23.60;15.00;;;;;;5063647;28;20213;-90
2023/07/06 15:38:17;;;;;;;5.85;5.25;;;23.80;13.40;;;;;;5065917;28;20208;-89
2023/07/06 15:40:46;;;;;;;7.60;5.65;;;24.00;13.50;;;;;;5083785;28;20196;-89
2023/07/06 15:43:14;;;;;;;6.80;5.20;;;23.90;13.50;;;;;;5079260;28;20232;-87
2023/07/06 15:45:41;;;;;;;6.90;5.43;;;23.60;13.30;;;;;;5043705;28;20947;-90
2023/07/06 15:48:10;;;;;;;5.53;4.55;;;23.30;14.30;;;;;;5063124;28;20278;-90
2023/07/06 15:50:38;;;;;;;5.18;4.65;;;23.10;14.80;;;;;;5072491;28;20555;-89
2023/07/06 15:53:07;;;;;;;7.85;5.72;;;22.90;14.80;;;;;;5058283;28;20598;-89
2023/07/06 15:55:34;;;;;;;6.85;5.18;;;22.80;14.80;;;;;;5086372;28;20193;-89
2023/07/06 15:58:02;;;;;;;8.35;5.45;;;22.70;15.70;;;;;;5088530;28;20295;-91
2023/07/06 16:00:30;;;;;;;10.25;8.02;;;22.80;15.60;;;;;;5083307;28;20646;-91
2023/07/06 16:02:57;;;;;;;7.05;5.30;;;22.90;15.70;;;;;;5061430;28;20197;-89
2023/07/06 16:05:25;;;;;;;29.70;18.65;;;23.20;15.00;;;;;;5064272;28;20212;-89
2023/07/06 16:07:52;;;;;;;10.95;5.30;;;23.40;15.60;;;;;;5080931;28;20212;-90
2023/07/06 16:10:20;;;;;;;14.13;9.23;;;23.70;13.40;;;;;;5037846;28;20204;-90
2023/07/06 16:12:46;;;;;;;8.05;5.72;;;23.90;13.50;;;;;;5077023;28;20204;-90
2023/07/06 16:15:13;;;;;;;5.88;5.13;;;23.90;13.50;;;;;;5061653;28;20197;-90
2023/07/06 16:17:41;;;;;;;10.65;5.22;;;23.80;13.50;;;;;;5058565;28;20232;-90
2023/07/06 16:20:09;;;;;;;6.40;5.18;;;23.70;13.30;;;;;;5076471;28;20602;-91
2023/07/06 16:22:38;;;;;;;5.82;5.20;;;23.70;13.30;;;;;;5057396;28;20196;-89
2023/07/06 16:25:06;;;;;;;5.53;4.70;;;23.70;13.30;;;;;;5062531;28;20307;-89
2023/07/06 16:27:33;;;;;;;8.02;4.90;;;23.90;13.50;;;;;;5047626;28;20201;-89
2023/07/06 16:30:00;;;;;;;5.78;4.35;;;24.00;13.60;;;;;;5079913;28;20241;-90
2023/07/06 16:32:26;;;;;;;4.95;4.45;;;24.10;13.60;;;;;;5079254;28;20981;-87
2023/07/06 16:34:53;;;;;;;5.57;4.95;;;24.20;13.70;;;;;;5083633;28;20672;-89
2023/07/06 16:37:20;;;;;;;5.43;4.32;;;24.30;13.80;;;;;;5080351;28;20193;-92
2023/07/06 16:39:49;;;;;;;5.68;4.60;;;24.30;13.70;;;;;;5083332;28;20245;-88
2023/07/06 16:42:16;;;;;;;4.78;4.18;;;24.20;13.70;;;;;;5084724;28;20193;-87
2023/07/06 16:44:43;;;;;;;5.30;4.38;;;24.20;13.70;;;;;;5042967;28;20311;-90
2023/07/06 16:47:10;;;;;;;5.10;4.60;;;24.10;13.60;;;;;;5064938;28;20197;-89
2023/07/06 16:49:37;;;;;;;5.60;4.60;;;24.10;13.70;;;;;;5068694;28;20215;-89
2023/07/06 16:52:04;;;;;;;5.65;4.72;;;24.10;13.60;;;;;;5086258;28;20230;-85
2023/07/06 16:54:31;;;;;;;6.00;4.85;;;24.10;13.60;;;;;;5065427;28;20207;-88
2023/07/06 16:56:59;;;;;;;6.22;4.13;;;24.10;14.40;;;;;;5062840;28;20204;-92
2023/07/06 16:59:26;;;;;;;4.40;4.00;;;24.00;14.80;;;;;;5080610;28;20196;-91
2023/07/06 17:01:53;;;;;;;4.85;4.35;;;23.80;15.40;;;;;;5084099;28;20199;-89
2023/07/06 17:04:20;;;;;;;7.90;5.15;;;23.70;14.30;;;;;;5074581;28;20223;-89
2023/07/06 17:06:47;;;;;;;5.20;4.70;;;23.60;14.70;;;;;;5089743;28;20200;-89
2023/07/06 17:09:14;;;;;;;5.40;4.50;;;23.40;15.50;;;;;;5084840;28;20571;-88
2023/07/06 17:11:41;;;;;;;5.10;4.25;;;23.20;16.70;;;;;;5055732;28;20269;-90
2023/07/06 17:14:11;;;;;;;5.60;4.40;;;23.20;16.20;;;;;;5084460;28;20201;-89
2023/07/06 17:16:38;;;;;;;7.95;4.30;;;23.20;15.80;;;;;;5072779;28;21581;-90
2023/07/06 17:19:05;;;;;;;7.70;4.38;;;23.20;15.80;;;;;;5082517;28;20216;-90
2023/07/06 17:21:32;;;;;;;7.72;4.57;;;23.10;16.30;;;;;;5085465;28;20588;-89
2023/07/06 17:23:59;;;;;;;5.75;4.82;;;23.10;16.30;;;;;;5065712;28;20224;-90
2023/07/06 17:26:27;;;;;;;7.63;4.60;;;22.90;16.50;;;;;;5080276;28;20201;-90
2023/07/06 17:28:53;;;;;;;5.88;4.60;;;22.80;17.30;;;;;;5065765;28;20202;-89
2023/07/06 17:31:22;;;;;;;5.80;4.60;;;22.80;17.90;;;;;;5079961;28;20196;-89
2023/07/06 17:33:49;;;;;;;4.75;4.20;;;22.70;17.30;;;;;;5065058;28;20204;-91
2023/07/06 17:36:17;;;;;;;4.82;4.43;;;22.60;17.50;;;;;;5080122;28;20198;-87
2023/07/06 17:38:44;;;;;;;7.63;4.65;;;22.50;18.60;;;;;;5080806;28;20201;-89
2023/07/06 17:41:12;;;;;;;5.90;4.78;;;22.50;17.80;;;;;;5061774;28;20220;-90
2023/07/06 17:43:42;;;;;;;7.75;4.53;;;22.50;18.20;;;;;;5065838;28;20219;-89
2023/07/06 17:46:11;;;;;;;6.13;4.75;;;22.50;17.50;;;;;;5059375;28;20198;-89
2023/07/06 17:51:41;;;;;;;6.95;4.80;;;22.50;17.00;;;;;;5073152;28;20287;-88
2023/07/06 18:11:10;;;;;;;8.45;4.50;;;22.00;19.20;;;;;;5073062;28;20331;-90
2023/07/06 18:13:38;;;;;;;7.70;5.13;;;22.00;20.30;;;;;;5071742;28;20196;-89
2023/07/06 18:16:06;;;;;;;7.57;5.50;;;21.90;20.70;;;;;;5088727;28;20557;-92
2023/07/06 18:21:17;;;;;;;6.78;4.82;;;21.80;21.80;;;;;;5067507;28;20215;-91
2023/07/06 18:26:30;;;;;;;6.57;4.65;;;21.60;20.90;;;;;;5068885;28;20220;-91
2023/07/06 18:28:57;;;;;;;8.73;5.93;;;21.60;22.70;;;;;;5074306;28;20261;-90
2023/07/06 18:31:24;;;;;;;7.35;4.93;;;21.60;23.00;;;;;;5090264;28;20224;-91
2023/07/06 18:33:51;;;;;;;6.47;4.32;;;21.50;22.30;;;;;;5047791;28;20215;-91
2023/07/06 18:36:18;;;;;;;6.60;5.15;;;21.40;21.70;;;;;;5071032;28;20197;-92
2023/07/06 18:41:53;;;;;;;6.63;5.00;;;21.40;22.60;;;;;;5062764;28;20232;-90
2023/07/06 18:44:20;;;;;;;7.53;5.88;;;21.40;24.10;;;;;;5084879;28;20213;-91
2023/07/06 18:46:47;;;;;;;6.60;5.47;;;21.30;23.80;;;;;;5066140;28;20196;-91
2023/07/06 18:49:14;;;;;;;6.40;5.10;;;21.30;24.50;;;;;;5058138;28;20197;-92
2023/07/06 18:51:41;;;;;;;8.70;5.45;;;21.20;24.80;;;;;;5096341;28;20621;-90
2023/07/06 18:54:09;;;;;;;8.05;5.60;;;21.20;25.40;;;;;;5086799;28;20205;-91
2023/07/06 18:56:43;;;;;;;7.38;4.97;;;21.10;25.10;;;;;;5069395;28;20193;-90
2023/07/06 18:59:10;;;;;;;9.18;5.60;;;21.00;25.80;;;;;;5062406;28;20190;-90
2023/07/06 19:01:37;;;;;;;8.30;4.82;;;21.00;26.40;;;;;;5081940;28;20212;-91
2023/07/06 19:04:04;;;;;;;5.63;4.85;;;20.90;26.10;;;;;;5084855;28;20220;-92
2023/07/06 19:06:34;;;;;;;7.18;5.45;;;20.80;26.80;;;;;;5082345;28;20277;-91
2023/07/06 19:09:04;;;;;;;7.13;5.25;;;20.70;27.10;;;;;;5072953;28;20215;-90
2023/07/06 19:11:32;;;;;;;9.38;6.55;;;20.60;27.60;;;;;;5087300;28;20193;-89
2023/07/06 19:13:59;;;;;;;8.95;5.78;;;20.60;28.60;;;;;;5089346;28;20217;-90
2023/07/06 19:16:26;;;;;;;8.05;6.72;;;20.50;28.90;;;;;;5063018;28;20205;-91
2023/07/06 19:18:53;;;;;;;7.68;6.00;;;20.50;28.80;;;;;;5061401;28;20266;-89
2023/07/06 19:21:20;;;;;;;6.55;5.80;;;20.40;31.20;;;;;;5071094;28;20211;-91
2023/07/06 19:23:47;;;;;;;11.18;5.72;;;20.20;30.60;;;;;;5064572;28;20204;-90
2023/07/06 19:26:14;;;;;;;7.88;5.72;;;20.20;32.20;;;;;;5084627;28;20207;-89
2023/07/06 19:28:43;;;;;;;8.68;5.40;;;20.20;32.20;;;;;;5087328;28;20831;-90
2023/07/06 19:31:10;;;;;;;7.55;5.68;;;20.20;32.20;;;;;;5088150;28;20203;-90
2023/07/06 19:33:37;;;;;;;6.43;5.70;;;20.10;33.20;;;;;;5074067;28;20193;-92
2023/07/06 19:36:05;;;;;;;8.73;5.72;;;19.90;32.00;;;;;;5070528;28;20211;-90
2023/07/06 19:38:33;;;;;;;7.50;5.68;;;19.90;32.00;;;;;;5067976;28;20199;-90
2023/07/06 19:41:00;;;;;;;7.65;5.80;;;19.90;33.80;;;;;;5083395;28;20664;-90
2023/07/06 19:43:26;;;;;;;7.32;6.10;;;19.90;34.20;;;;;;5057189;28;20213;-89
2023/07/06 19:45:55;;;;;;;8.73;6.10;;;19.80;34.80;;;;;;5092275;28;20223;-90
2023/07/06 19:48:22;;;;;;;7.30;5.00;;;19.80;35.30;;;;;;5081537;28;20216;-91
2023/07/06 19:50:49;;;;;;;8.20;5.40;;;19.70;35.80;;;;;;5087411;28;20601;-90
2023/07/06 19:53:17;;;;;;;7.25;6.03;;;19.60;36.90;;;;;;5082976;28;20644;-91
2023/07/06 19:55:43;;;;;;;7.00;5.68;;;19.40;38.60;;;;;;5029143;28;20665;-90
2023/07/06 19:58:10;;;;;;;6.78;5.47;;;19.30;38.70;;;;;;5086983;28;20675;-90
2023/07/06 20:00:38;;;;;;;9.63;6.32;;;19.30;40.30;;;;;;5052252;28;20193;-90
2023/07/06 20:03:06;;;;;;;9.93;7.40;;;19.30;40.60;;;;;;5086361;28;20205;-92
2023/07/06 20:05:59;;;;;;;10.68;7.13;;;19.20;42.00;;;;;;5059626;28;20228;-90
2023/07/06 20:08:26;;;;;;;13.15;7.65;;;19.10;43.40;;;;;;5073213;28;20193;-89
2023/07/06 20:10:54;;;;;;;9.40;6.70;;;19.00;43.30;;;;;;5070028;28;20571;-91
2023/07/06 20:13:20;;;;;;;8.27;6.75;;;19.00;45.00;;;;;;5087597;28;20617;-90
2023/07/06 20:15:48;;;;;;;8.48;7.00;;;19.10;45.30;;;;;;5082385;28;20205;-90
2023/07/06 20:18:16;;;;;;;9.50;6.50;;;19.10;45.30;;;;;;5067716;28;20290;-90
2023/07/06 20:23:24;;;;;;;9.23;6.93;;;18.90;46.60;;;;;;5075292;28;20209;-90
2023/07/06 20:25:51;;;;;;;8.13;5.82;;;18.90;47.50;;;;;;5080468;28;20227;-90
2023/07/06 20:28:18;;;;;;;10.05;6.03;;;18.90;46.90;;;;;;5059722;28;20200;-91
2023/07/06 20:30:46;;;;;;;10.10;6.28;;;18.80;47.80;;;;;;5072059;28;20193;-90
2023/07/06 20:33:13;;;;;;;6.78;5.72;;;18.60;48.20;;;;;;5080399;28;20611;-91
2023/07/06 20:38:23;;;;;;;12.48;7.10;;;18.50;51.00;;;;;;5068396;28;20680;-91
2023/07/06 20:40:49;;;;;;;8.13;6.10;;;18.50;52.20;;;;;;5085512;28;20201;-91